Time;durP1;ratioP1;P1;durP2;ratioP2;P2;SDS_P1;SDS_P2;PMS_P1;PMS_P2;Temp;Humidity;BMP_temperature;BMP_pressure;BME280_temperature;BME280_humidity;BME280_pressure;Samples;Min_cycle;Max_cycle;Signal;HPM_P1;HPM_P2
2021/12/30 00:00:38;;;;;;;16.38;9.57;;;3.20;99.90;;;;;;4969907;28;20050;-68
2021/12/30 00:03:08;;;;;;;19.92;12.23;;;3.30;99.90;;;;;;4965393;28;20058;-66
2021/12/30 00:05:34;;;;;;;33.78;9.65;;;3.30;99.90;;;;;;4967266;28;20057;-66
2021/12/30 00:08:03;;;;;;;21.58;8.73;;;3.40;99.90;;;;;;4973464;28;20056;-67
2021/12/30 00:10:29;;;;;;;18.70;10.88;;;3.10;99.90;;;;;;4974186;28;20043;-66
2021/12/30 00:12:54;;;;;;;19.25;10.52;;;2.80;99.90;;;;;;4975280;28;20085;-65
2021/12/30 00:15:23;;;;;;;17.67;9.88;;;3.00;99.90;;;;;;4978779;28;20045;-66
2021/12/30 00:17:49;;;;;;;21.80;9.85;;;3.10;99.90;;;;;;4979475;28;20085;-66
2021/12/30 00:20:19;;;;;;;16.23;9.15;;;3.30;99.90;;;;;;4974092;28;20480;-66
2021/12/30 00:22:46;;;;;;;17.23;9.85;;;3.40;99.90;;;;;;4980227;28;20038;-66
2021/12/30 00:25:12;;;;;;;21.30;10.50;;;3.40;99.90;;;;;;4972533;28;20031;-66
2021/12/30 00:27:39;;;;;;;18.73;9.80;;;3.40;99.90;;;;;;4978749;28;20046;-66
2021/12/30 00:30:07;;;;;;;27.50;11.38;;;3.40;99.90;;;;;;4976174;28;20049;-66
2021/12/30 00:32:33;;;;;;;15.95;8.80;;;3.50;99.90;;;;;;4980443;28;20054;-66
2021/12/30 00:34:59;;;;;;;16.02;8.60;;;3.50;99.90;;;;;;4976947;28;20034;-66
2021/12/30 00:37:25;;;;;;;25.92;8.73;;;3.50;99.90;;;;;;4975563;28;20030;-66
2021/12/30 00:39:50;;;;;;;30.58;8.60;;;3.20;99.90;;;;;;4979118;28;20026;-66
2021/12/30 00:42:16;;;;;;;19.83;8.50;;;2.80;99.90;;;;;;4978455;28;20049;-66
2021/12/30 00:44:45;;;;;;;27.65;8.90;;;2.70;99.90;;;;;;4981544;28;20042;-66
2021/12/30 00:47:10;;;;;;;17.55;8.85;;;2.50;99.90;;;;;;4977576;28;20144;-65
2021/12/30 00:49:36;;;;;;;14.10;8.25;;;2.40;99.90;;;;;;4971756;28;20062;-66
2021/12/30 00:52:02;;;;;;;19.35;8.38;;;2.50;99.90;;;;;;4975236;28;20030;-66
2021/12/30 00:54:28;;;;;;;17.02;8.50;;;2.70;99.90;;;;;;4975556;28;20022;-66
2021/12/30 00:56:54;;;;;;;17.05;8.60;;;2.80;99.90;;;;;;4979329;28;20565;-66
2021/12/30 00:59:19;;;;;;;17.92;8.35;;;2.80;99.90;;;;;;4980380;28;20414;-67
2021/12/30 01:01:45;;;;;;;14.52;8.50;;;3.00;99.90;;;;;;4982322;28;20034;-66
2021/12/30 01:04:11;;;;;;;21.63;8.50;;;3.00;99.90;;;;;;4979506;28;20117;-66
2021/12/30 01:06:37;;;;;;;13.60;8.10;;;3.10;99.90;;;;;;4976846;28;20610;-66
2021/12/30 01:09:03;;;;;;;12.93;7.30;;;3.20;99.90;;;;;;4979282;28;20035;-66
2021/12/30 01:11:30;;;;;;;17.48;7.82;;;3.20;99.90;;;;;;4979599;28;20038;-67
2021/12/30 01:14:04;;;;;;;17.27;8.52;;;3.20;99.90;;;;;;4979585;28;20063;-66
2021/12/30 01:16:35;;;;;;;13.43;7.43;;;3.20;99.90;;;;;;4977274;28;20125;-67
2021/12/30 01:19:22;;;;;;;18.43;7.00;;;3.20;99.90;;;;;;4978171;28;20026;-66
2021/12/30 01:21:51;;;;;;;16.02;7.78;;;3.20;99.90;;;;;;4979332;28;20451;-65
2021/12/30 01:24:16;;;;;;;15.75;7.55;;;3.10;99.90;;;;;;4981041;28;20064;-66
2021/12/30 01:26:42;;;;;;;14.10;6.75;;;3.10;99.90;;;;;;4978568;28;20034;-66
2021/12/30 01:29:08;;;;;;;12.40;7.70;;;3.00;99.90;;;;;;4978958;28;20038;-66
2021/12/30 01:31:36;;;;;;;12.95;7.03;;;2.90;99.90;;;;;;4975268;28;20042;-65
2021/12/30 01:34:02;;;;;;;14.68;8.68;;;2.90;99.90;;;;;;4977418;28;20022;-65
2021/12/30 01:36:28;;;;;;;13.90;6.97;;;3.00;99.90;;;;;;4979344;28;20795;-65
2021/12/30 01:38:54;;;;;;;17.38;7.07;;;3.00;99.90;;;;;;4979859;28;20039;-65
2021/12/30 01:41:23;;;;;;;23.15;7.30;;;3.10;99.90;;;;;;4979321;28;20027;-64
2021/12/30 01:43:50;;;;;;;17.88;7.35;;;3.10;99.90;;;;;;4980504;28;20492;-64
2021/12/30 01:46:18;;;;;;;13.18;6.97;;;3.10;99.90;;;;;;4978772;28;20045;-65
2021/12/30 01:48:44;;;;;;;21.23;7.63;;;3.00;99.90;;;;;;4982343;28;20046;-65
2021/12/30 01:51:10;;;;;;;17.65;7.07;;;3.10;99.90;;;;;;4978721;28;20051;-66
2021/12/30 01:53:37;;;;;;;17.58;7.25;;;3.10;99.90;;;;;;4978945;28;20054;-66
2021/12/30 01:56:04;;;;;;;16.63;7.60;;;3.10;99.90;;;;;;4978563;28;20042;-66
2021/12/30 01:58:30;;;;;;;16.77;7.20;;;3.10;99.90;;;;;;4982790;28;20038;-66
2021/12/30 02:00:56;;;;;;;14.70;7.53;;;3.10;99.90;;;;;;4977737;28;20118;-68
2021/12/30 02:03:23;;;;;;;28.08;7.95;;;3.10;99.90;;;;;;4979940;28;20039;-65
2021/12/30 02:05:49;;;;;;;15.32;8.02;;;3.10;99.90;;;;;;4973542;28;20034;-66
2021/12/30 02:08:20;;;;;;;15.13;7.28;;;3.10;99.90;;;;;;4979037;28;20042;-66
2021/12/30 02:10:49;;;;;;;19.93;7.57;;;3.20;99.90;;;;;;4979951;28;20038;-65
2021/12/30 02:13:17;;;;;;;18.75;8.05;;;3.20;99.90;;;;;;4978520;28;20049;-65
2021/12/30 02:15:43;;;;;;;15.90;7.05;;;3.20;99.90;;;;;;4978415;28;20460;-65
2021/12/30 02:18:09;;;;;;;16.83;7.40;;;3.20;99.90;;;;;;4981481;28;20042;-65
2021/12/30 02:20:56;;;;;;;13.13;6.68;;;3.20;99.90;;;;;;4976175;28;20043;-65
2021/12/30 02:23:29;;;;;;;17.98;7.38;;;3.20;99.90;;;;;;4978248;28;20046;-65
2021/12/30 02:25:58;;;;;;;21.73;7.45;;;3.30;99.90;;;;;;4977144;28;20565;-65
2021/12/30 02:28:25;;;;;;;14.82;7.78;;;3.30;99.90;;;;;;4990611;28;20480;-65
2021/12/30 02:30:53;;;;;;;14.35;6.78;;;3.30;99.90;;;;;;4980687;28;20841;-64
2021/12/30 02:33:19;;;;;;;12.43;7.43;;;3.30;99.90;;;;;;4979775;28;20507;-64
2021/12/30 02:35:45;;;;;;;13.20;7.32;;;3.30;99.90;;;;;;4983880;28;20038;-64
2021/12/30 02:38:11;;;;;;;16.52;7.28;;;3.30;99.90;;;;;;4981819;28;20031;-64
2021/12/30 02:40:43;;;;;;;17.17;8.30;;;3.30;99.90;;;;;;4981983;28;20113;-64
2021/12/30 02:43:17;;;;;;;17.58;7.63;;;3.30;99.90;;;;;;4980244;28;20081;-64
2021/12/30 02:45:43;;;;;;;18.85;7.35;;;3.20;99.90;;;;;;4978008;28;20038;-64
2021/12/30 02:48:17;;;;;;;14.13;7.18;;;3.00;99.90;;;;;;4977584;28;20031;-65
2021/12/30 02:50:45;;;;;;;21.77;7.63;;;3.10;99.90;;;;;;4980171;28;20038;-65
2021/12/30 02:53:12;;;;;;;15.82;7.43;;;3.00;99.90;;;;;;4978036;28;20026;-65
2021/12/30 02:55:38;;;;;;;14.93;7.68;;;2.80;99.90;;;;;;4982579;28;20041;-65
2021/12/30 02:58:04;;;;;;;16.55;7.38;;;2.90;99.90;;;;;;4981730;28;20029;-64
2021/12/30 03:00:30;;;;;;;13.48;7.57;;;3.00;99.90;;;;;;4980591;28;20034;-65
2021/12/30 03:02:56;;;;;;;15.07;8.00;;;3.10;99.90;;;;;;4978130;28;20389;-65
2021/12/30 03:05:24;;;;;;;12.15;7.68;;;3.20;99.90;;;;;;4981339;28;20033;-66
2021/12/30 03:07:51;;;;;;;25.05;8.30;;;3.20;99.90;;;;;;4975415;28;20027;-66
2021/12/30 03:10:19;;;;;;;15.65;7.82;;;3.20;99.90;;;;;;4979204;28;21122;-66
2021/12/30 03:12:45;;;;;;;12.90;7.75;;;3.30;99.90;;;;;;4972011;28;20042;-67
2021/12/30 03:15:15;;;;;;;22.05;7.22;;;3.30;99.90;;;;;;4976003;28;20030;-66
2021/12/30 03:17:41;;;;;;;11.13;7.40;;;3.30;99.90;;;;;;4975402;28;20509;-66
2021/12/30 03:20:09;;;;;;;15.38;7.97;;;3.40;99.90;;;;;;4974999;28;20034;-66
2021/12/30 03:22:38;;;;;;;20.15;7.35;;;3.40;99.90;;;;;;4981321;28;20065;-66
2021/12/30 03:25:09;;;;;;;41.95;9.23;;;3.40;99.90;;;;;;4984473;28;20038;-66
2021/12/30 03:27:35;;;;;;;21.63;9.15;;;3.40;99.90;;;;;;4982672;28;20125;-66
2021/12/30 03:30:06;;;;;;;16.30;7.75;;;3.20;99.90;;;;;;4981992;28;20049;-66
2021/12/30 03:32:32;;;;;;;12.50;6.97;;;3.20;99.90;;;;;;4982573;28;20084;-66
2021/12/30 03:34:57;;;;;;;13.68;7.30;;;3.30;99.90;;;;;;4983772;28;20038;-66
2021/12/30 03:37:23;;;;;;;30.75;6.85;;;3.30;99.90;;;;;;4981798;28;20058;-66
2021/12/30 03:39:49;;;;;;;13.00;7.75;;;3.30;99.90;;;;;;4979589;28;21378;-66
2021/12/30 03:42:16;;;;;;;15.07;7.07;;;3.40;99.90;;;;;;4980562;28;20370;-66
2021/12/30 03:44:42;;;;;;;13.43;7.28;;;3.30;99.90;;;;;;4978988;28;21009;-66
2021/12/30 03:47:12;;;;;;;25.42;6.65;;;3.10;99.90;;;;;;4976895;28;20049;-66
2021/12/30 03:49:38;;;;;;;18.70;6.38;;;3.10;99.90;;;;;;4977456;28;20058;-66
2021/12/30 03:52:04;;;;;;;24.30;6.63;;;3.10;99.90;;;;;;4978319;28;20034;-65
2021/12/30 03:54:30;;;;;;;18.92;6.18;;;3.00;99.90;;;;;;4976745;28;20031;-66
2021/12/30 03:56:56;;;;;;;13.50;7.22;;;3.10;99.90;;;;;;4974435;28;20037;-66
2021/12/30 03:59:21;;;;;;;12.20;7.50;;;3.10;99.90;;;;;;4972041;28;20049;-66
2021/12/30 04:01:47;;;;;;;9.90;6.88;;;3.10;99.90;;;;;;4972952;28;20034;-66
2021/12/30 04:04:13;;;;;;;20.35;7.68;;;3.10;99.90;;;;;;4977808;28;20026;-66
2021/12/30 04:06:38;;;;;;;14.00;7.30;;;3.10;99.90;;;;;;4977912;28;20528;-67
2021/12/30 04:09:05;;;;;;;17.90;6.93;;;3.10;99.90;;;;;;4977022;28;20037;-66
2021/12/30 04:11:33;;;;;;;14.15;6.95;;;3.20;99.90;;;;;;4976971;28;20088;-66
2021/12/30 04:14:01;;;;;;;12.05;6.57;;;3.20;99.90;;;;;;4975896;28;20025;-65
2021/12/30 04:16:26;;;;;;;10.50;6.60;;;3.20;99.90;;;;;;4974857;28;20481;-66
2021/12/30 04:18:52;;;;;;;10.48;6.82;;;3.20;99.90;;;;;;4977251;28;20037;-66
2021/12/30 04:21:19;;;;;;;13.65;6.78;;;3.30;99.90;;;;;;4979153;28;20508;-66
2021/12/30 04:23:45;;;;;;;14.73;8.25;;;3.30;99.90;;;;;;4980241;28;20027;-66
2021/12/30 04:26:11;;;;;;;17.20;6.15;;;3.40;99.90;;;;;;4983010;28;20045;-66
2021/12/30 04:28:38;;;;;;;11.00;6.43;;;3.30;99.90;;;;;;4980198;28;20030;-66
2021/12/30 04:31:04;;;;;;;17.02;6.38;;;3.30;99.90;;;;;;4977732;28;20034;-66
2021/12/30 04:33:29;;;;;;;14.40;6.72;;;3.30;99.90;;;;;;4976665;28;20420;-66
2021/12/30 04:35:56;;;;;;;11.88;6.40;;;3.30;99.90;;;;;;4980145;28;20500;-66
2021/12/30 04:38:27;;;;;;;10.93;6.40;;;3.30;99.90;;;;;;4979923;28;20025;-66
2021/12/30 04:40:53;;;;;;;8.50;5.53;;;3.30;99.90;;;;;;4975085;28;20030;-66
2021/12/30 04:43:19;;;;;;;9.27;5.85;;;3.30;99.90;;;;;;4981341;28;20045;-66
2021/12/30 04:45:47;;;;;;;7.95;5.75;;;3.30;99.90;;;;;;4978555;28;20043;-66
2021/12/30 04:48:16;;;;;;;9.77;6.25;;;3.30;99.90;;;;;;4979210;28;20049;-66
2021/12/30 04:50:44;;;;;;;11.00;6.10;;;3.30;99.90;;;;;;4976726;28;20146;-66
2021/12/30 04:53:12;;;;;;;16.23;7.00;;;3.30;99.90;;;;;;4982352;28;20023;-66
2021/12/30 04:55:38;;;;;;;9.68;5.72;;;3.20;99.90;;;;;;4976950;28;20030;-66
2021/12/30 04:58:04;;;;;;;31.98;6.35;;;3.30;99.90;;;;;;4979503;28;20035;-66
2021/12/30 05:00:31;;;;;;;10.48;6.40;;;3.20;99.90;;;;;;4978811;28;20039;-66
2021/12/30 05:05:23;;;;;;;10.77;6.10;;;3.20;99.90;;;;;;4981278;28;20129;-66
2021/12/30 05:07:48;;;;;;;15.48;6.70;;;3.20;99.90;;;;;;4978539;28;20061;-66
2021/12/30 05:10:14;;;;;;;14.32;7.22;;;3.20;99.90;;;;;;4976459;28;20720;-66
2021/12/30 05:12:40;;;;;;;14.60;6.25;;;3.20;99.90;;;;;;4977852;28;20026;-66
2021/12/30 05:15:06;;;;;;;26.23;10.07;;;3.20;99.90;;;;;;4980992;28;20069;-67
2021/12/30 05:17:32;;;;;;;11.82;7.75;;;3.10;99.90;;;;;;4976238;28;20458;-67
2021/12/30 05:19:57;;;;;;;13.30;6.75;;;3.10;99.90;;;;;;4981478;28;20080;-66
2021/12/30 05:22:23;;;;;;;9.88;7.00;;;3.10;99.90;;;;;;5006728;28;20093;-67
2021/12/30 05:24:48;;;;;;;11.50;6.40;;;3.10;99.90;;;;;;4978150;28;20062;-67
2021/12/30 05:27:14;;;;;;;10.73;7.03;;;3.10;99.90;;;;;;4979283;28;20046;-67
2021/12/30 05:29:40;;;;;;;12.18;6.28;;;3.20;99.90;;;;;;4977371;28;20097;-66
2021/12/30 05:32:05;;;;;;;12.02;6.75;;;3.20;99.90;;;;;;4980641;28;20732;-66
2021/12/30 05:34:31;;;;;;;11.13;7.13;;;3.20;99.90;;;;;;4981881;28;20489;-66
2021/12/30 05:36:56;;;;;;;11.82;6.45;;;3.20;99.90;;;;;;4980074;28;20675;-67
2021/12/30 05:39:22;;;;;;;10.63;6.72;;;3.30;99.90;;;;;;4978117;28;20068;-67
2021/12/30 05:41:48;;;;;;;11.48;6.78;;;3.20;99.90;;;;;;4976962;28;20046;-67
2021/12/30 05:44:13;;;;;;;10.90;6.50;;;3.20;99.90;;;;;;4978755;28;20081;-66
2021/12/30 05:46:39;;;;;;;11.63;6.32;;;3.20;99.90;;;;;;4977289;28;20448;-66
2021/12/30 05:49:05;;;;;;;10.85;6.38;;;3.20;99.90;;;;;;4977823;28;20030;-66
2021/12/30 05:51:30;;;;;;;13.00;6.90;;;3.20;99.90;;;;;;4980829;28;20042;-67
2021/12/30 05:53:56;;;;;;;11.88;7.07;;;3.20;99.90;;;;;;4981687;28;20030;-67
2021/12/30 05:56:22;;;;;;;12.80;6.78;;;3.20;99.90;;;;;;4977418;28;20042;-67
2021/12/30 05:58:47;;;;;;;9.95;6.55;;;3.20;99.90;;;;;;4977209;28;20027;-67
2021/12/30 06:01:13;;;;;;;13.70;6.80;;;3.20;99.90;;;;;;4979540;28;20039;-67
2021/12/30 06:03:39;;;;;;;11.00;7.18;;;3.20;99.90;;;;;;4978667;28;20042;-66
2021/12/30 06:06:05;;;;;;;14.18;6.75;;;3.20;99.90;;;;;;4983110;28;20125;-66
2021/12/30 06:08:31;;;;;;;16.65;6.60;;;3.10;99.90;;;;;;4983034;28;20073;-66
2021/12/30 06:10:56;;;;;;;10.95;6.30;;;3.20;99.90;;;;;;4983759;28;20030;-66
2021/12/30 06:13:22;;;;;;;9.90;5.95;;;3.20;99.90;;;;;;4986004;28;20385;-67
2021/12/30 06:15:48;;;;;;;9.57;6.45;;;3.20;99.90;;;;;;4980875;28;20169;-67
2021/12/30 06:18:13;;;;;;;9.18;6.38;;;3.20;99.90;;;;;;4980988;28;20031;-66
2021/12/30 06:20:39;;;;;;;8.05;5.30;;;3.20;99.90;;;;;;4981306;28;20516;-66
2021/12/30 06:23:04;;;;;;;8.30;5.38;;;3.20;99.90;;;;;;4981148;28;20058;-66
2021/12/30 06:25:30;;;;;;;10.43;6.18;;;3.20;99.90;;;;;;4984539;28;20070;-66
2021/12/30 06:27:56;;;;;;;9.27;6.18;;;3.20;99.90;;;;;;4986713;28;20037;-66
2021/12/30 06:30:22;;;;;;;40.95;24.27;;;3.20;99.90;;;;;;4983177;28;20119;-66
2021/12/30 06:32:47;;;;;;;39.75;25.23;;;3.20;99.90;;;;;;4983094;28;20022;-66
2021/12/30 06:35:13;;;;;;;36.17;22.58;;;3.20;99.90;;;;;;4980933;28;20039;-66
2021/12/30 06:37:40;;;;;;;16.70;10.55;;;3.30;99.90;;;;;;4985455;28;20040;-66
2021/12/30 06:40:08;;;;;;;19.27;10.23;;;3.20;99.90;;;;;;4980819;28;20092;-66
2021/12/30 06:42:34;;;;;;;16.23;10.35;;;3.20;99.90;;;;;;4988972;28;20516;-66
2021/12/30 06:45:00;;;;;;;15.90;8.95;;;3.20;99.90;;;;;;4982620;28;20035;-66
2021/12/30 06:47:26;;;;;;;17.40;7.63;;;3.20;99.90;;;;;;4978669;28;20043;-66
2021/12/30 06:49:58;;;;;;;16.35;7.43;;;3.20;99.90;;;;;;4975880;28;20054;-66
2021/12/30 06:52:23;;;;;;;10.30;6.97;;;3.20;99.90;;;;;;4984814;28;20043;-65
2021/12/30 06:54:49;;;;;;;11.27;6.68;;;3.20;99.90;;;;;;4981229;28;20477;-66
2021/12/30 06:57:15;;;;;;;19.13;11.25;;;3.20;99.90;;;;;;4980517;28;20041;-65
2021/12/30 06:59:40;;;;;;;16.98;9.25;;;3.20;99.90;;;;;;4983790;28;20034;-66
2021/12/30 07:02:06;;;;;;;14.75;8.10;;;3.20;99.90;;;;;;4978061;28;20034;-66
2021/12/30 07:04:32;;;;;;;14.35;8.07;;;3.20;99.90;;;;;;4978895;28;20441;-65
2021/12/30 07:06:58;;;;;;;14.90;8.68;;;3.30;99.90;;;;;;4981463;28;20130;-65
2021/12/30 07:09:24;;;;;;;16.58;9.23;;;3.30;99.90;;;;;;4979759;28;20027;-65
2021/12/30 07:11:50;;;;;;;25.15;11.10;;;3.30;99.90;;;;;;4983711;28;20038;-66
2021/12/30 07:14:20;;;;;;;37.70;15.05;;;3.40;99.90;;;;;;4976547;28;20035;-65
2021/12/30 07:16:46;;;;;;;34.00;15.73;;;3.30;99.90;;;;;;4973313;28;20066;-65
2021/12/30 07:19:12;;;;;;;34.15;9.45;;;3.20;99.90;;;;;;4972948;28;20051;-65
2021/12/30 07:21:38;;;;;;;23.50;8.63;;;3.20;99.90;;;;;;4975516;28;20062;-65
2021/12/30 07:24:05;;;;;;;25.98;9.32;;;2.90;99.90;;;;;;4978392;28;20035;-65
2021/12/30 07:26:30;;;;;;;26.17;9.77;;;2.70;99.90;;;;;;4982529;28;20034;-65
2021/12/30 07:28:56;;;;;;;20.80;8.88;;;2.50;99.90;;;;;;4979026;28;20445;-65
2021/12/30 07:31:22;;;;;;;20.77;9.63;;;2.50;99.90;;;;;;4981748;28;20034;-65
2021/12/30 07:33:47;;;;;;;18.10;9.80;;;2.50;99.90;;;;;;4979149;28;21410;-66
2021/12/30 07:36:13;;;;;;;21.92;10.95;;;2.60;99.90;;;;;;4982410;28;20408;-66
2021/12/30 07:38:39;;;;;;;17.38;10.23;;;2.80;99.90;;;;;;4982467;28;20114;-66
2021/12/30 07:41:05;;;;;;;13.45;8.70;;;2.70;99.90;;;;;;4979554;28;20027;-66
2021/12/30 07:43:32;;;;;;;17.55;9.07;;;2.70;99.90;;;;;;4979993;28;20034;-66
2021/12/30 07:45:57;;;;;;;16.92;9.27;;;2.70;99.90;;;;;;4975119;28;20100;-65
2021/12/30 07:48:23;;;;;;;16.70;9.70;;;2.60;99.90;;;;;;4972467;28;20760;-64
2021/12/30 07:50:50;;;;;;;15.60;9.23;;;2.70;99.90;;;;;;4974383;28;20417;-64
2021/12/30 07:53:16;;;;;;;22.33;9.80;;;2.70;99.90;;;;;;4973162;28;20035;-65
2021/12/30 07:55:41;;;;;;;18.77;9.93;;;2.80;99.90;;;;;;4974961;28;20106;-64
2021/12/30 07:58:07;;;;;;;18.35;10.98;;;2.70;99.90;;;;;;4972231;28;20043;-65
2021/12/30 08:00:33;;;;;;;22.98;12.18;;;2.80;99.90;;;;;;4973833;28;20105;-65
2021/12/30 08:02:59;;;;;;;19.90;11.30;;;2.90;99.90;;;;;;4977932;28;20050;-65
2021/12/30 08:05:26;;;;;;;26.83;10.38;;;3.00;99.90;;;;;;4978577;28;20643;-65
2021/12/30 08:07:52;;;;;;;37.33;9.73;;;3.00;99.90;;;;;;4978833;28;20497;-64
2021/12/30 08:10:18;;;;;;;18.88;10.48;;;2.90;99.90;;;;;;4983710;28;20022;-64
2021/12/30 08:12:46;;;;;;;30.02;10.82;;;2.60;99.90;;;;;;4975734;28;20173;-64
2021/12/30 08:15:13;;;;;;;32.97;10.00;;;2.50;99.90;;;;;;4978060;28;20068;-66
2021/12/30 08:17:40;;;;;;;31.15;8.98;;;2.40;99.90;;;;;;4978911;28;20031;-64
2021/12/30 08:20:07;;;;;;;36.70;10.68;;;2.30;99.90;;;;;;4980479;28;20512;-66
2021/12/30 08:22:34;;;;;;;52.92;11.40;;;2.40;99.90;;;;;;4984191;28;20081;-64
2021/12/30 08:25:00;;;;;;;37.50;11.45;;;2.40;99.90;;;;;;4978813;28;20030;-64
2021/12/30 08:27:26;;;;;;;33.35;8.75;;;2.30;99.90;;;;;;4979792;28;20109;-64
2021/12/30 08:29:52;;;;;;;60.75;8.75;;;2.40;99.90;;;;;;4978518;28;20029;-64
2021/12/30 08:32:18;;;;;;;48.03;7.63;;;2.50;99.90;;;;;;4971508;28;20527;-65
2021/12/30 08:34:45;;;;;;;53.38;8.05;;;2.60;99.90;;;;;;4972114;28;21345;-64
2021/12/30 08:37:12;;;;;;;49.78;10.10;;;2.50;99.90;;;;;;4974908;28;20074;-65
2021/12/30 08:39:41;;;;;;;47.85;14.23;;;2.40;99.90;;;;;;4974807;28;20714;-65
2021/12/30 08:42:35;;;;;;;43.17;7.68;;;2.40;99.90;;;;;;4978046;28;20400;-66
2021/12/30 08:45:01;;;;;;;26.55;8.77;;;2.40;99.90;;;;;;4970293;28;20038;-66
2021/12/30 08:47:28;;;;;;;50.88;13.00;;;2.50;99.90;;;;;;4976353;28;20065;-66
2021/12/30 08:49:54;;;;;;;58.25;13.18;;;2.60;99.90;;;;;;4981539;28;20416;-66
2021/12/30 08:52:22;;;;;;;29.52;10.65;;;2.60;99.90;;;;;;4975883;28;20027;-66
2021/12/30 08:54:49;;;;;;;57.60;14.70;;;2.60;99.90;;;;;;4977401;28;20061;-67
2021/12/30 08:57:16;;;;;;;75.32;35.03;;;2.60;99.90;;;;;;4977873;28;20061;-66
2021/12/30 08:59:42;;;;;;;47.97;15.70;;;2.50;99.90;;;;;;4980295;28;20519;-66
2021/12/30 09:02:08;;;;;;;66.25;39.95;;;2.30;99.90;;;;;;4975062;28;20030;-67
2021/12/30 09:04:35;;;;;;;70.68;41.35;;;2.30;99.90;;;;;;4977294;28;20493;-66
2021/12/30 09:07:02;;;;;;;80.90;21.17;;;2.10;99.90;;;;;;4982004;28;20054;-66
2021/12/30 09:09:28;;;;;;;35.80;14.98;;;2.10;99.90;;;;;;4974249;28;20037;-65
2021/12/30 09:11:55;;;;;;;48.28;13.50;;;2.10;99.90;;;;;;4981374;28;20069;-66
2021/12/30 09:14:21;;;;;;;35.00;10.75;;;2.20;99.90;;;;;;4978531;28;20062;-65
2021/12/30 09:16:48;;;;;;;33.72;7.60;;;2.30;99.90;;;;;;4977664;28;20077;-66
2021/12/30 09:19:15;;;;;;;28.05;13.52;;;2.30;99.90;;;;;;4979014;28;20027;-65
2021/12/30 09:21:41;;;;;;;31.80;11.40;;;2.20;99.90;;;;;;4978282;28;20034;-65
2021/12/30 09:24:08;;;;;;;33.78;12.80;;;2.30;99.90;;;;;;4977985;28;20101;-65
2021/12/30 09:26:34;;;;;;;30.20;14.57;;;2.20;99.90;;;;;;4979059;28;20066;-66
2021/12/30 09:29:01;;;;;;;26.20;11.70;;;2.20;99.90;;;;;;4976431;28;20505;-66
2021/12/30 09:31:28;;;;;;;46.42;23.83;;;2.30;99.90;;;;;;4977385;28;20045;-66
2021/12/30 09:33:55;;;;;;;26.55;12.10;;;2.30;99.90;;;;;;4979152;28;20031;-66
2021/12/30 09:36:22;;;;;;;21.55;11.02;;;2.30;99.90;;;;;;4964699;28;20654;-66
2021/12/30 09:38:48;;;;;;;28.02;12.77;;;2.20;99.90;;;;;;4959715;28;20627;-68
2021/12/30 09:41:14;;;;;;;24.25;12.10;;;2.20;99.90;;;;;;4971736;28;20095;-66
2021/12/30 09:43:40;;;;;;;22.42;11.40;;;2.10;99.90;;;;;;4973565;28;20055;-65
2021/12/30 09:46:05;;;;;;;28.90;12.50;;;2.10;99.90;;;;;;4973377;28;20054;-66
2021/12/30 09:48:31;;;;;;;21.40;10.73;;;2.10;99.90;;;;;;4969991;28;20494;-65
2021/12/30 09:50:58;;;;;;;20.08;9.68;;;2.10;99.90;;;;;;4964348;28;20054;-66
2021/12/30 09:53:26;;;;;;;31.80;9.10;;;2.10;99.90;;;;;;4975170;28;20155;-66
2021/12/30 09:55:55;;;;;;;23.02;9.60;;;2.10;99.90;;;;;;4974369;28;20042;-65
2021/12/30 09:58:21;;;;;;;20.23;9.50;;;2.10;99.90;;;;;;4976434;28;20057;-65
2021/12/30 10:00:47;;;;;;;23.55;10.13;;;2.10;99.90;;;;;;4971865;28;20060;-65
2021/12/30 10:03:13;;;;;;;29.25;11.55;;;2.00;99.90;;;;;;4975563;28;20084;-65
2021/12/30 10:05:40;;;;;;;34.00;9.55;;;2.00;99.90;;;;;;4976042;28;20045;-65
2021/12/30 10:08:07;;;;;;;29.40;10.43;;;2.10;99.90;;;;;;4976210;28;20092;-66
2021/12/30 10:10:35;;;;;;;36.95;9.93;;;2.10;99.90;;;;;;4974242;28;20023;-65
2021/12/30 10:13:13;;;;;;;41.03;10.60;;;2.10;99.90;;;;;;4974205;28;20045;-66
2021/12/30 10:15:44;;;;;;;37.53;10.15;;;2.10;99.90;;;;;;4980413;28;20030;-65
2021/12/30 10:18:10;;;;;;;32.53;10.88;;;2.10;99.90;;;;;;4983183;28;20084;-65
2021/12/30 10:20:39;;;;;;;43.17;11.43;;;2.10;99.90;;;;;;4973756;28;20126;-65
2021/12/30 10:23:16;;;;;;;39.13;10.60;;;2.10;99.90;;;;;;4988251;28;20114;-66
2021/12/30 10:25:45;;;;;;;40.55;11.68;;;2.10;99.90;;;;;;4973177;28;20038;-65
2021/12/30 10:28:28;;;;;;;46.67;14.25;;;2.10;99.90;;;;;;4974235;28;20048;-66
2021/12/30 10:31:11;;;;;;;47.25;12.32;;;2.10;99.90;;;;;;4971828;28;20109;-66
2021/12/30 10:33:45;;;;;;;48.55;11.30;;;2.10;99.90;;;;;;4971106;28;20049;-66
2021/12/30 10:36:34;;;;;;;47.88;11.60;;;2.20;99.90;;;;;;4976863;28;20448;-67
2021/12/30 10:39:26;;;;;;;40.92;11.80;;;2.20;99.90;;;;;;4981996;28;20116;-66
2021/12/30 10:42:19;;;;;;;47.17;11.25;;;2.20;99.90;;;;;;4979972;28;20092;-65
2021/12/30 10:45:04;;;;;;;72.30;11.68;;;2.20;99.90;;;;;;4979719;28;20054;-65
2021/12/30 10:47:32;;;;;;;38.75;12.15;;;2.30;99.90;;;;;;4984238;28;20039;-65
2021/12/30 10:50:03;;;;;;;68.95;12.73;;;2.30;99.90;;;;;;4978808;28;20156;-64
2021/12/30 10:52:29;;;;;;;65.40;14.65;;;2.30;99.90;;;;;;4977964;28;20031;-65
2021/12/30 10:54:56;;;;;;;60.80;12.65;;;2.30;99.90;;;;;;4978831;28;20086;-65
2021/12/30 10:57:28;;;;;;;52.97;16.17;;;2.30;99.90;;;;;;4976568;28;20041;-64
2021/12/30 10:59:54;;;;;;;46.15;13.70;;;2.30;99.90;;;;;;4982634;28;20026;-66
2021/12/30 11:02:27;;;;;;;63.65;13.35;;;2.40;99.90;;;;;;4973251;28;20045;-65
2021/12/30 11:05:02;;;;;;;59.75;13.30;;;2.40;99.90;;;;;;4975873;28;20031;-66
2021/12/30 11:07:52;;;;;;;40.53;11.77;;;2.40;99.90;;;;;;4980183;28;20038;-65
2021/12/30 11:10:33;;;;;;;50.88;14.40;;;2.40;99.90;;;;;;4978049;28;20025;-65
2021/12/30 11:13:10;;;;;;;47.05;16.65;;;2.40;99.90;;;;;;4976531;28;20050;-65
2021/12/30 11:15:36;;;;;;;57.65;15.00;;;2.50;99.90;;;;;;4981778;28;20117;-65
2021/12/30 11:18:11;;;;;;;59.70;12.57;;;2.50;99.90;;;;;;4981351;28;20094;-65
2021/12/30 11:20:42;;;;;;;47.10;12.38;;;2.50;99.90;;;;;;4981467;28;20035;-66
2021/12/30 11:23:08;;;;;;;37.13;11.73;;;2.50;99.90;;;;;;4981341;28;20626;-65
2021/12/30 11:25:34;;;;;;;47.50;11.38;;;2.50;99.90;;;;;;4981227;28;21189;-65
2021/12/30 11:28:00;;;;;;;40.33;11.77;;;2.40;99.90;;;;;;4982381;28;20037;-65
2021/12/30 11:30:26;;;;;;;32.97;12.88;;;2.40;99.90;;;;;;4979204;28;20031;-65
2021/12/30 11:32:52;;;;;;;25.13;11.50;;;2.40;99.90;;;;;;4979024;28;20400;-65
2021/12/30 11:35:21;;;;;;;30.83;11.77;;;2.40;99.90;;;;;;4983850;28;20046;-66
2021/12/30 11:37:48;;;;;;;42.55;12.05;;;2.50;99.90;;;;;;4982895;28;20070;-66
2021/12/30 11:40:18;;;;;;;42.58;12.45;;;2.50;99.90;;;;;;4978471;28;20042;-66
2021/12/30 11:42:52;;;;;;;46.90;15.23;;;2.60;99.90;;;;;;4978943;28;20054;-65
2021/12/30 11:45:29;;;;;;;39.83;17.50;;;2.60;99.90;;;;;;4978780;28;20031;-65
2021/12/30 11:48:00;;;;;;;49.50;27.15;;;2.60;99.90;;;;;;4978716;28;20066;-65
2021/12/30 11:50:26;;;;;;;38.07;15.57;;;2.60;99.90;;;;;;4979881;28;20093;-65
2021/12/30 11:53:07;;;;;;;78.68;33.47;;;2.60;99.90;;;;;;4981845;28;20399;-65
2021/12/30 11:55:54;;;;;;;35.13;15.20;;;2.70;99.90;;;;;;4980929;28;20050;-65
2021/12/30 11:58:32;;;;;;;27.48;11.82;;;2.70;99.90;;;;;;4981289;28;20493;-65
2021/12/30 12:01:13;;;;;;;51.30;19.55;;;2.70;99.90;;;;;;4982352;28;20037;-65
2021/12/30 12:03:53;;;;;;;52.28;23.83;;;2.60;99.90;;;;;;4981519;28;20101;-65
2021/12/30 12:06:28;;;;;;;49.50;22.65;;;2.60;99.90;;;;;;4981823;28;20657;-65
2021/12/30 12:09:22;;;;;;;39.42;18.02;;;2.70;99.90;;;;;;4976940;28;20058;-65
2021/12/30 12:11:54;;;;;;;40.70;18.02;;;2.70;99.90;;;;;;4982317;28;20141;-65
2021/12/30 12:14:19;;;;;;;74.65;36.13;;;2.80;99.90;;;;;;4980146;28;20023;-65
2021/12/30 12:16:52;;;;;;;37.90;20.45;;;2.90;99.90;;;;;;4979947;28;20034;-64
2021/12/30 12:19:21;;;;;;;139.27;71.47;;;3.10;99.90;;;;;;4981511;28;20034;-65
2021/12/30 12:21:53;;;;;;;60.28;29.75;;;3.10;99.90;;;;;;5009473;28;20038;-65
2021/12/30 12:24:21;;;;;;;;;;;3.10;99.90;;;;;;4976389;28;20353;-64
2021/12/30 12:27:01;;;;;;;109.63;56.90;;;3.00;99.90;;;;;;4983409;28;20603;-64
2021/12/30 12:29:28;;;;;;;71.85;36.47;;;3.10;99.90;;;;;;4979118;28;20034;-65
2021/12/30 12:31:57;;;;;;;47.38;24.95;;;3.10;99.90;;;;;;4980699;28;20108;-64
2021/12/30 12:34:42;;;;;;;93.93;45.65;;;3.10;99.90;;;;;;4980872;28;20034;-64
2021/12/30 12:37:33;;;;;;;166.77;75.97;;;3.10;99.90;;;;;;4976324;28;20704;-64
2021/12/30 12:40:01;;;;;;;85.05;39.55;;;3.00;99.90;;;;;;4977438;28;20688;-65
2021/12/30 12:42:48;;;;;;;100.35;52.25;;;3.00;99.90;;;;;;4980113;28;20118;-64
2021/12/30 12:45:26;;;;;;;84.25;44.83;;;3.10;99.90;;;;;;4977734;28;20336;-65
2021/12/30 12:48:20;;;;;;;56.30;29.88;;;3.20;99.90;;;;;;4978399;28;20034;-64
2021/12/30 12:50:55;;;;;;;24.15;13.80;;;3.30;99.90;;;;;;4980013;28;20112;-65